Time;durP1;ratioP1;P1;durP2;ratioP2;P2;SDS_P1;SDS_P2;PMS_P1;PMS_P2;Temp;Humidity;BMP_temperature;BMP_pressure;BME280_temperature;BME280_humidity;BME280_pressure;Samples;Min_cycle;Max_cycle;Signal;HPM_P1;HPM_P2
2023/03/27 00:01:41;;;;;;;;;;;;;;;3.08;94.87;101365.69;10459854;28;20322;-62
2023/03/27 00:06:44;;;;;;;;;;;;;;;2.98;95.34;101377.94;10443960;28;19935;-62
2023/03/27 00:11:46;;;;;;;;;;;;;;;2.92;96.14;101383.19;10460748;28;19971;-63
2023/03/27 00:16:49;;;;;;;;;;;;;;;2.76;96.10;101396.38;10442973;28;20326;-62
2023/03/27 00:21:52;;;;;;;;;;;;;;;2.68;96.82;101389.63;10442825;28;19924;-62
2023/03/27 00:26:55;;;;;;;;;;;;;;;2.86;97.25;101401.38;10458700;28;19928;-65
2023/03/27 00:31:57;;;;;;;;;;;;;;;2.62;97.95;101410.38;10460058;28;20363;-63
2023/03/27 00:36:59;;;;;;;;;;;;;;;2.61;98.58;101425.03;10459870;28;20383;-62
2023/03/27 00:42:02;;;;;;;;;;;;;;;2.78;97.88;101419.63;10458777;28;19929;-62
2023/03/27 00:47:04;;;;;;;;;;;;;;;2.77;97.71;101431.72;10458648;28;19983;-62
2023/03/27 00:52:07;;;;;;;;;;;;;;;2.65;97.51;101429.28;10442062;28;19925;-65
2023/03/27 00:57:10;;;;;;;;;;;;;;;2.62;99.26;101441.41;10424351;28;20383;-62
2023/03/27 01:02:12;;;;;;;;;;;;;;;2.69;98.30;101445.59;10458559;28;19932;-62
2023/03/27 01:07:15;;;;;;;;;;;;;;;2.39;98.76;101453.78;10440815;28;19925;-62
2023/03/27 01:12:18;;;;;;;;;;;;;;;2.39;100.00;101452.91;10441051;28;19929;-62
2023/03/27 01:17:39;;;;;;;;;;;;;;;2.64;100.00;101453.44;10458313;28;19948;-62
2023/03/27 01:23:00;;;;;;;;;;;;;;;2.34;100.00;101463.31;10440193;28;19925;-62
2023/03/27 01:28:09;;;;;;;;;;;;;;;2.41;100.00;101467.53;10448482;28;19928;-62
2023/03/27 01:33:33;;;;;;;;;;;;;;;2.46;100.00;101474.38;10440309;28;19929;-62
2023/03/27 01:38:41;;;;;;;;;;;;;;;2.33;100.00;101482.25;10440595;28;19975;-62
2023/03/27 01:43:43;;;;;;;;;;;;;;;2.51;100.00;101488.94;10456748;28;19925;-62
2023/03/27 01:48:49;;;;;;;;;;;;;;;2.27;100.00;101490.09;10457266;28;19925;-62
2023/03/27 01:53:57;;;;;;;;;;;;;;;2.40;100.00;101496.84;10457035;28;19971;-62
2023/03/27 01:59:05;;;;;;;;;;;;;;;2.38;100.00;101502.88;10456129;28;20318;-62
2023/03/27 02:04:09;;;;;;;;;;;;;;;2.36;100.00;101510.66;10439343;28;19925;-62
2023/03/27 02:09:17;;;;;;;;;;;;;;;2.51;100.00;101516.53;10438961;28;19978;-62
2023/03/27 02:14:20;;;;;;;;;;;;;;;2.78;100.00;101512.72;10439744;28;19924;-62
2023/03/27 02:19:25;;;;;;;;;;;;;;;3.03;100.00;101528.75;10438595;28;19924;-62
2023/03/27 02:24:28;;;;;;;;;;;;;;;3.09;100.00;101539.03;10438791;28;19925;-62
2023/03/27 02:29:42;;;;;;;;;;;;;;;3.02;100.00;101547.72;10464650;28;19932;-62
2023/03/27 02:34:45;;;;;;;;;;;;;;;3.05;100.00;101552.03;10464543;28;19935;-62
2023/03/27 02:39:52;;;;;;;;;;;;;;;2.95;100.00;101566.81;10463757;28;19925;-61
2023/03/27 02:45:01;;;;;;;;;;;;;;;3.00;100.00;101561.59;10464241;28;20287;-62
2023/03/27 02:50:09;;;;;;;;;;;;;;;2.90;100.00;101563.44;10465302;28;19961;-62
2023/03/27 02:55:14;;;;;;;;;;;;;;;3.29;100.00;101549.06;10446529;28;19931;-62
2023/03/27 03:00:22;;;;;;;;;;;;;;;3.24;98.50;101555.19;10445857;28;19925;-62
2023/03/27 03:05:24;;;;;;;;;;;;;;;3.28;97.29;101578.44;10446700;28;19935;-62
2023/03/27 03:10:27;;;;;;;;;;;;;;;3.27;97.58;101575.88;10446228;28;19928;-62
2023/03/27 03:15:29;;;;;;;;;;;;;;;3.01;98.29;101584.84;10445334;28;19928;-62
2023/03/27 03:20:33;;;;;;;;;;;;;;;3.06;100.00;101588.22;10461817;28;20334;-62
2023/03/27 03:25:35;;;;;;;;;;;;;;;2.64;100.00;101599.94;10463131;28;19925;-62
2023/03/27 03:30:41;;;;;;;;;;;;;;;2.50;100.00;101610.44;10462527;28;20391;-63
2023/03/27 03:35:49;;;;;;;;;;;;;;;2.66;100.00;101614.59;10462131;28;19932;-63
2023/03/27 03:40:52;;;;;;;;;;;;;;;2.56;100.00;101631.06;10462108;28;19925;-62
2023/03/27 03:45:54;;;;;;;;;;;;;;;2.39;100.00;101633.84;10462469;28;19929;-62
2023/03/27 03:50:57;;;;;;;;;;;;;;;2.39;100.00;101636.44;10461047;28;20376;-62
2023/03/27 03:55:59;;;;;;;;;;;;;;;2.55;100.00;101652.63;10460481;28;19932;-63
2023/03/27 04:01:02;;;;;;;;;;;;;;;2.63;100.00;101660.31;10461392;28;19951;-62
2023/03/27 04:06:06;;;;;;;;;;;;;;;2.62;100.00;101666.34;10461693;28;19979;-62
2023/03/27 04:11:09;;;;;;;;;;;;;;;2.82;100.00;101669.56;10460991;28;19925;-63
2023/03/27 04:16:11;;;;;;;;;;;;;;;2.84;100.00;101680.78;10460242;28;19931;-64
2023/03/27 04:21:13;;;;;;;;;;;;;;;2.88;100.00;101690.19;10442958;28;19924;-65
2023/03/27 04:26:16;;;;;;;;;;;;;;;3.19;100.00;101717.44;10460300;28;19929;-64
2023/03/27 04:31:18;;;;;;;;;;;;;;;2.86;100.00;101732.47;10460124;28;20360;-65
2023/03/27 04:36:21;;;;;;;;;;;;;;;2.75;100.00;101748.94;10442192;28;19932;-65
2023/03/27 04:41:23;;;;;;;;;;;;;;;2.84;100.00;101753.19;10460295;28;19986;-64
2023/03/27 04:46:25;;;;;;;;;;;;;;;2.82;100.00;101761.81;10459499;28;19975;-64
2023/03/27 04:51:31;;;;;;;;;;;;;;;2.52;100.00;101761.22;10399617;28;20383;-64
2023/03/27 04:56:33;;;;;;;;;;;;;;;2.00;100.00;101754.72;10422066;28;19932;-65
2023/03/27 05:01:36;;;;;;;;;;;;;;;2.34;100.00;101752.75;10458735;28;19925;-64
2023/03/27 05:06:39;;;;;;;;;;;;;;;2.04;100.00;101746.94;10459676;28;19932;-64
2023/03/27 05:11:43;;;;;;;;;;;;;;;2.17;100.00;101758.06;10457870;28;19925;-64
2023/03/27 05:16:47;;;;;;;;;;;;;;;2.18;100.00;101770.09;10457735;28;19982;-64
2023/03/27 05:21:50;;;;;;;;;;;;;;;1.84;100.00;101772.03;10441475;28;20334;-64
2023/03/27 05:26:52;;;;;;;;;;;;;;;1.98;100.00;101769.38;10458300;28;19924;-64
2023/03/27 05:31:54;;;;;;;;;;;;;;;2.03;100.00;101776.25;10457293;28;19983;-64
2023/03/27 05:36:57;;;;;;;;;;;;;;;1.71;100.00;101786.72;10458291;28;19925;-64
2023/03/27 05:41:59;;;;;;;;;;;;;;;2.11;100.00;101789.09;10458149;28;19971;-64
2023/03/27 05:47:02;;;;;;;;;;;;;;;1.92;100.00;101780.59;10457238;28;19963;-64
2023/03/27 05:52:04;;;;;;;;;;;;;;;1.81;100.00;101796.13;10457651;28;19978;-64
2023/03/27 05:57:06;;;;;;;;;;;;;;;1.95;100.00;101797.78;10457064;28;19948;-64
2023/03/27 06:02:10;;;;;;;;;;;;;;;2.12;100.00;101806.31;10456198;28;19960;-64
2023/03/27 06:07:13;;;;;;;;;;;;;;;2.03;100.00;101821.84;10456854;28;19924;-64
2023/03/27 06:12:16;;;;;;;;;;;;;;;2.21;100.00;101826.06;10457381;28;19979;-64
2023/03/27 06:17:18;;;;;;;;;;;;;;;2.41;100.00;101831.13;10456511;28;19978;-64
2023/03/27 06:22:20;;;;;;;;;;;;;;;2.29;100.00;101837.22;10456523;28;19937;-64
2023/03/27 06:27:23;;;;;;;;;;;;;;;2.37;100.00;101845.78;10456414;28;19924;-64
2023/03/27 06:32:25;;;;;;;;;;;;;;;2.50;100.00;101843.97;10456250;28;19979;-64
2023/03/27 06:37:32;;;;;;;;;;;;;;;2.71;100.00;101849.88;10455627;28;20330;-64
2023/03/27 06:42:35;;;;;;;;;;;;;;;2.85;100.00;101852.34;10456136;28;20482;-64
2023/03/27 06:47:37;;;;;;;;;;;;;;;3.01;100.00;101853.03;10437722;28;19939;-64
2023/03/27 06:52:52;;;;;;;;;;;;;;;3.28;100.00;101847.63;10455942;28;20291;-64
2023/03/27 06:57:55;;;;;;;;;;;;;;;3.19;100.00;101854.59;10455163;28;20387;-64
2023/03/27 07:02:59;;;;;;;;;;;;;;;3.63;100.00;101848.97;10456208;28;19931;-64
2023/03/27 07:08:02;;;;;;;;;;;;;;;3.69;97.00;101860.97;10455518;28;19924;-65
2023/03/27 07:13:16;;;;;;;;;;;;;;;4.07;94.78;101867.44;10459965;28;19994;-64
2023/03/27 07:18:18;;;;;;;;;;;;;;;4.02;92.52;101877.00;10463573;28;19971;-64
2023/03/27 07:23:20;;;;;;;;;;;;;;;4.34;91.47;101893.84;10462988;28;19932;-63
2023/03/27 07:28:23;;;;;;;;;;;;;;;4.88;88.37;101899.09;10462630;28;19970;-64
2023/03/27 07:33:25;;;;;;;;;;;;;;;4.64;86.11;101902.94;10453114;28;20418;-64
2023/03/27 07:38:28;;;;;;;;;;;;;;;5.39;86.00;101895.63;10463471;28;19924;-64
2023/03/27 07:43:30;;;;;;;;;;;;;;;5.66;84.40;101903.78;10461884;28;19931;-65
2023/03/27 07:48:34;;;;;;;;;;;;;;;5.83;82.52;101916.47;10461695;28;19975;-64
2023/03/27 07:53:37;;;;;;;;;;;;;;;6.18;81.61;101910.56;10462261;28;19979;-65
2023/03/27 07:58:39;;;;;;;;;;;;;;;6.54;78.96;101915.00;10461838;28;19971;-64
2023/03/27 08:03:42;;;;;;;;;;;;;;;6.61;78.86;101919.19;10461295;28;20003;-65
2023/03/27 08:08:44;;;;;;;;;;;;;;;6.62;78.36;101924.38;10444835;28;19925;-65
2023/03/27 08:13:46;;;;;;;;;;;;;;;6.90;76.45;101926.31;10461504;28;19932;-65
2023/03/27 08:18:48;;;;;;;;;;;;;;;7.22;77.60;101935.09;10460671;28;19925;-65
2023/03/27 08:23:51;;;;;;;;;;;;;;;7.48;76.13;101939.63;10459465;28;19924;-65
2023/03/27 08:28:54;;;;;;;;;;;;;;;7.60;75.98;101935.84;10461265;28;19925;-64
2023/03/27 08:33:57;;;;;;;;;;;;;;;7.84;75.29;101943.91;10459958;28;19925;-65
2023/03/27 08:39:01;;;;;;;;;;;;;;;8.04;75.81;101941.59;10458934;28;19986;-65
2023/03/27 08:44:05;;;;;;;;;;;;;;;8.09;74.04;101951.91;10460242;28;19924;-64
2023/03/27 08:49:10;;;;;;;;;;;;;;;9.02;71.37;101956.03;10439523;28;19929;-65
2023/03/27 08:54:22;;;;;;;;;;;;;;;8.42;71.57;101963.06;10459296;28;20323;-65
2023/03/27 08:59:26;;;;;;;;;;;;;;;8.37;69.74;101965.84;10459430;28;19925;-65
2023/03/27 09:04:43;;;;;;;;;;;;;;;9.16;70.66;101976.47;10458198;28;20289;-65
2023/03/27 09:09:48;;;;;;;;;;;;;;;7.93;69.45;101973.16;10441706;28;19933;-65
2023/03/27 09:14:55;;;;;;;;;;;;;;;9.57;67.85;101966.41;10456544;28;20395;-65
2023/03/27 09:19:59;;;;;;;;;;;;;;;7.06;73.00;102021.41;10458730;28;19932;-65
2023/03/27 09:25:02;;;;;;;;;;;;;;;5.27;83.57;102036.94;10441075;28;19932;-65
2023/03/27 09:30:13;;;;;;;;;;;;;;;4.60;92.58;102034.41;10439395;28;19928;-65
2023/03/27 09:35:17;;;;;;;;;;;;;;;4.91;94.30;102039.19;10457904;28;19929;-65
2023/03/27 09:40:32;;;;;;;;;;;;;;;5.08;92.42;102033.75;10440599;28;19976;-64
2023/03/27 09:45:37;;;;;;;;;;;;;;;8.38;85.86;102035.38;10439145;28;19925;-65
2023/03/27 09:50:46;;;;;;;;;;;;;;;8.93;82.36;102032.94;10440662;28;19925;-65
2023/03/27 09:55:51;;;;;;;;;;;;;;;11.66;76.76;102019.56;10439440;28;19925;-65
2023/03/27 10:01:08;;;;;;;;;;;;;;;13.40;73.43;102023.94;10457195;28;19925;-65
2023/03/27 10:06:12;;;;;;;;;;;;;;;10.93;72.29;102017.28;10438621;28;19931;-65
2023/03/27 10:11:15;;;;;;;;;;;;;;;12.18;72.74;102027.00;10439202;28;20375;-65
2023/03/27 10:16:18;;;;;;;;;;;;;;;12.42;65.66;102025.03;10438226;28;19979;-65
2023/03/27 10:21:31;;;;;;;;;;;;;;;13.27;64.66;102031.56;10455063;28;19932;-65
2023/03/27 10:26:34;;;;;;;;;;;;;;;13.71;59.58;102025.88;10439519;28;19925;-66
2023/03/27 10:31:39;;;;;;;;;;;;;;;11.11;59.90;102062.00;10422635;28;20433;-65
2023/03/27 10:36:41;;;;;;;;;;;;;;;10.92;70.11;102082.84;10456933;28;19925;-65
2023/03/27 10:41:45;;;;;;;;;;;;;;;8.52;78.48;102086.38;10438456;28;19999;-65
2023/03/27 10:46:47;;;;;;;;;;;;;;;9.09;77.50;102084.72;10420521;28;20481;-65
2023/03/27 10:51:50;;;;;;;;;;;;;;;11.73;70.41;102076.09;10431237;28;19925;-65
2023/03/27 10:57:01;;;;;;;;;;;;;;;12.53;66.50;102079.72;10464713;28;19925;-67
2023/03/27 11:02:10;;;;;;;;;;;;;;;13.41;61.93;102087.00;10463611;28;20390;-67
2023/03/27 11:07:14;;;;;;;;;;;;;;;11.67;58.47;102079.84;10445895;28;19924;-65
2023/03/27 11:12:17;;;;;;;;;;;;;;;11.46;57.31;102073.72;10446393;28;19935;-65
2023/03/27 11:17:20;;;;;;;;;;;;;;;12.59;52.00;102068.91;10360426;23;19925;-64
2023/03/27 11:22:25;;;;;;;;;;;;;;;13.73;53.50;102072.25;10323554;28;19926;-65
2023/03/27 11:27:29;;;;;;;;;;;;;;;12.43;55.58;102082.75;10322845;28;19926;-64
2023/03/27 11:32:33;;;;;;;;;;;;;;;16.46;54.82;102078.16;10322577;28;20391;-64
2023/03/27 11:37:36;;;;;;;;;;;;;;;15.41;54.61;102073.78;10322620;28;19926;-65
2023/03/27 11:42:41;;;;;;;;;;;;;;;14.41;55.13;102084.56;10355172;28;19980;-65
2023/03/27 11:47:47;;;;;;;;;;;;;;;14.34;50.38;102100.75;10322184;28;20424;-65
2023/03/27 11:52:56;;;;;;;;;;;;;;;13.41;55.02;102091.41;10322019;28;19933;-65
2023/03/27 11:58:14;;;;;;;;;;;;;;;12.24;53.02;102095.00;10339407;28;19926;-64
2023/03/27 12:03:35;;;;;;;;;;;;;;;15.45;50.20;102087.69;10322277;28;19929;-64
2023/03/27 12:08:42;;;;;;;;;;;;;;;16.39;49.01;102083.91;10339075;28;19929;-65
2023/03/27 12:14:05;;;;;;;;;;;;;;;13.08;54.67;102085.03;10321528;28;19926;-65
2023/03/27 12:19:16;;;;;;;;;;;;;;;16.57;49.27;102082.78;10338150;28;19930;-64
2023/03/27 12:24:35;;;;;;;;;;;;;;;17.06;51.11;102098.22;10337917;28;19925;-64
2023/03/27 12:29:40;;;;;;;;;;;;;;;14.73;52.23;102097.81;10320999;28;19948;-64
2023/03/27 12:34:50;;;;;;;;;;;;;;;12.18;55.66;102101.34;10353216;28;19930;-64
2023/03/27 12:39:55;;;;;;;;;;;;;;;9.34;60.04;102136.25;10337966;28;19981;-64
2023/03/27 12:45:14;;;;;;;;;;;;;;;10.56;59.74;102140.94;10319772;28;19926;-64
2023/03/27 12:50:18;;;;;;;;;;;;;;;13.68;56.30;102121.63;10336873;28;20385;-64
2023/03/27 12:55:20;;;;;;;;;;;;;;;14.53;52.43;102124.38;10337344;28;19977;-64
2023/03/27 13:00:24;;;;;;;;;;;;;;;12.21;49.78;102126.63;10336613;28;19973;-62
2023/03/27 13:05:45;;;;;;;;;;;;;;;14.62;46.04;102118.63;10319889;28;19944;-61
2023/03/27 13:11:14;;;;;;;;;;;;;;;15.82;43.01;102101.41;10335666;28;20364;-64
2023/03/27 13:16:35;;;;;;;;;;;;;;;15.68;44.82;102109.25;10299465;28;19926;-63
2023/03/27 13:21:37;;;;;;;;;;;;;;;17.82;42.90;102101.22;10336222;28;20016;-64
2023/03/27 13:26:43;;;;;;;;;;;;;;;12.80;47.73;102124.91;10336047;28;19929;-64
2023/03/27 13:31:46;;;;;;;;;;;;;;;11.97;55.51;102146.88;10336189;28;19933;-64
2023/03/27 13:36:48;;;;;;;;;;;;;;;14.55;51.42;102154.97;10335823;28;19933;-64
2023/03/27 13:41:52;;;;;;;;;;;;;;;12.72;51.09;102141.00;10335738;28;20365;-64
2023/03/27 13:46:56;;;;;;;;;;;;;;;14.15;52.52;102154.41;10318274;28;19930;-64
2023/03/27 13:52:01;;;;;;;;;;;;;;;13.86;48.10;102156.72;10317604;28;20372;-63
2023/03/27 13:57:04;;;;;;;;;;;;;;;13.72;46.91;102156.56;10335205;28;19925;-63
2023/03/27 14:02:13;;;;;;;;;;;;;;;13.14;48.50;102165.41;10317369;28;19926;-64
2023/03/27 14:07:24;;;;;;;;;;;;;;;15.28;47.12;102167.81;10334907;28;19929;-65
2023/03/27 14:12:36;;;;;;;;;;;;;;;16.69;46.20;102155.19;10334271;28;19992;-65
2023/03/27 14:17:45;;;;;;;;;;;;;;;16.28;42.08;102156.78;10317148;28;19961;-65
2023/03/27 14:22:55;;;;;;;;;;;;;;;15.08;45.46;102160.97;10338937;28;20369;-65
2023/03/27 14:27:58;;;;;;;;;;;;;;;15.26;44.74;102159.09;10326221;28;20369;-65
2023/03/27 14:33:05;;;;;;;;;;;;;;;14.73;46.09;102173.44;10342765;28;19932;-64
2023/03/27 14:38:23;;;;;;;;;;;;;;;13.10;50.22;102182.25;10324923;28;19926;-65
2023/03/27 14:43:26;;;;;;;;;;;;;;;13.08;51.04;102197.22;10342359;28;20324;-65
2023/03/27 14:48:32;;;;;;;;;;;;;;;13.00;49.74;102193.19;10324322;28;20002;-65
2023/03/27 14:53:35;;;;;;;;;;;;;;;13.02;51.27;102201.84;10341564;28;20493;-65
2023/03/27 14:58:39;;;;;;;;;;;;;;;14.04;46.54;102193.59;10323994;28;20325;-64
2023/03/27 15:03:45;;;;;;;;;;;;;;;15.48;43.80;102182.50;10324484;28;19977;-65
2023/03/27 15:08:51;;;;;;;;;;;;;;;15.16;44.10;102197.47;10341552;28;19925;-65
2023/03/27 15:13:54;;;;;;;;;;;;;;;15.86;45.73;102189.22;10323950;28;19929;-65
2023/03/27 15:18:57;;;;;;;;;;;;;;;15.25;45.90;102194.34;10340465;28;20281;-65
2023/03/27 15:24:04;;;;;;;;;;;;;;;13.13;45.69;102195.25;10340264;28;20287;-64
2023/03/27 15:29:16;;;;;;;;;;;;;;;11.64;51.48;102210.31;10339976;28;19930;-64
2023/03/27 15:34:19;;;;;;;;;;;;;;;10.69;55.35;102231.28;10340058;28;19926;-64
2023/03/27 15:39:22;;;;;;;;;;;;;;;10.48;54.58;102222.38;10344883;28;19925;-65
2023/03/27 15:44:24;;;;;;;;;;;;;;;9.61;56.39;102237.34;10325724;28;20293;-65
2023/03/27 15:49:31;;;;;;;;;;;;;;;10.21;57.80;102234.59;10336769;28;19926;-65
2023/03/27 15:54:34;;;;;;;;;;;;;;;11.02;55.47;102256.31;10336921;28;19980;-65
2023/03/27 15:59:36;;;;;;;;;;;;;;;11.26;53.96;102249.31;10353834;28;19926;-65
2023/03/27 16:04:46;;;;;;;;;;;;;;;10.32;56.03;102258.72;10336856;28;19926;-65
2023/03/27 16:09:55;;;;;;;;;;;;;;;9.13;56.77;102261.41;10324318;28;19956;-65
2023/03/27 16:14:58;;;;;;;;;;;;;;;9.03;57.42;102260.81;10337034;28;19930;-65
2023/03/27 16:20:06;;;;;;;;;;;;;;;8.54;56.27;102256.91;10338263;28;20336;-65
2023/03/27 16:25:09;;;;;;;;;;;;;;;12.08;50.99;102250.53;10310360;28;19925;-65
2023/03/27 16:30:34;;;;;;;;;;;;;;;13.04;46.63;102262.25;10341492;28;20321;-65
2023/03/27 16:35:36;;;;;;;;;;;;;;;13.56;44.14;102259.91;10315878;28;19926;-65
2023/03/27 16:40:39;;;;;;;;;;;;;;;13.50;45.71;102267.22;10309179;28;19953;-64
2023/03/27 16:45:41;;;;;;;;;;;;;;;16.97;39.26;102259.34;10311275;28;19937;-64
2023/03/27 16:50:43;;;;;;;;;;;;;;;14.80;41.39;102269.72;10328989;28;19933;-64
2023/03/27 16:55:45;;;;;;;;;;;;;;;11.66;46.69;102274.88;10332939;28;19930;-64
2023/03/27 17:00:48;;;;;;;;;;;;;;;8.36;52.33;102286.88;10314549;28;19926;-63
2023/03/27 17:05:51;;;;;;;;;;;;;;;8.00;55.53;102297.25;10321918;28;19988;-63
2023/03/27 17:10:53;;;;;;;;;;;;;;;7.66;57.03;102312.81;10320568;28;19932;-63
2023/03/27 17:15:55;;;;;;;;;;;;;;;7.24;59.27;102326.66;10335022;28;19933;-64
2023/03/27 17:20:58;;;;;;;;;;;;;;;7.27;59.48;102320.53;10338534;28;19957;-64
2023/03/27 17:26:01;;;;;;;;;;;;;;;7.40;60.71;102324.63;10336203;28;19926;-64
2023/03/27 17:31:03;;;;;;;;;;;;;;;6.99;60.46;102331.44;10340707;28;19926;-64
2023/03/27 17:36:10;;;;;;;;;;;;;;;6.96;60.71;102336.72;10306023;28;19969;-63
2023/03/27 17:41:16;;;;;;;;;;;;;;;6.56;60.73;102337.41;10335570;28;19929;-64
2023/03/27 17:46:18;;;;;;;;;;;;;;;6.16;61.35;102333.63;10335779;28;20344;-64
2023/03/27 17:51:20;;;;;;;;;;;;;;;6.42;62.22;102353.19;10334308;28;19932;-64
2023/03/27 17:56:22;;;;;;;;;;;;;;;6.19;62.79;102357.00;10325202;28;19933;-64
2023/03/27 18:01:25;;;;;;;;;;;;;;;6.16;61.92;102372.66;10326178;28;20349;-65
2023/03/27 18:06:27;;;;;;;;;;;;;;;6.28;62.86;102374.22;10327024;28;20317;-64
2023/03/27 18:11:29;;;;;;;;;;;;;;;5.77;63.17;102375.72;10320543;28;19955;-65
2023/03/27 18:16:31;;;;;;;;;;;;;;;5.63;63.26;102388.03;10334135;28;19926;-65
2023/03/27 18:21:34;;;;;;;;;;;;;;;5.86;64.64;102394.69;10333886;28;20024;-65
2023/03/27 18:26:36;;;;;;;;;;;;;;;5.19;66.29;102408.38;10334861;28;19933;-65
2023/03/27 18:31:39;;;;;;;;;;;;;;;5.41;67.48;102405.56;10333286;28;19926;-61
2023/03/27 18:36:43;;;;;;;;;;;;;;;5.55;68.40;102406.28;10285990;28;20459;-61
2023/03/27 18:41:45;;;;;;;;;;;;;;;5.35;68.46;102414.28;10328796;28;20344;-61
2023/03/27 18:46:47;;;;;;;;;;;;;;;5.07;69.19;102425.78;10333990;28;19926;-60
2023/03/27 18:51:50;;;;;;;;;;;;;;;5.02;69.26;102431.88;10321647;28;19934;-60
2023/03/27 18:56:52;;;;;;;;;;;;;;;5.06;68.99;102424.94;10333967;28;19932;-61
2023/03/27 19:01:54;;;;;;;;;;;;;;;4.95;69.36;102430.19;10322788;28;19925;-61
2023/03/27 19:06:57;;;;;;;;;;;;;;;4.81;70.36;102432.06;10299821;28;19926;-60
2023/03/27 19:12:02;;;;;;;;;;;;;;;4.87;71.67;102434.59;10337030;28;20301;-60
2023/03/27 19:17:04;;;;;;;;;;;;;;;4.66;71.18;102438.19;10323194;28;19926;-61
2023/03/27 19:22:07;;;;;;;;;;;;;;;4.42;72.32;102444.38;10337138;28;19925;-60
2023/03/27 19:27:10;;;;;;;;;;;;;;;4.49;72.88;102442.63;10343180;28;19929;-60
2023/03/27 19:32:25;;;;;;;;;;;;;;;4.44;74.05;102456.47;10310195;28;20156;-60
2023/03/27 19:37:28;;;;;;;;;;;;;;;4.39;74.13;102444.41;10339143;28;20017;-60
2023/03/27 19:42:30;;;;;;;;;;;;;;;4.27;75.27;102448.78;10341006;28;19925;-60
2023/03/27 19:47:33;;;;;;;;;;;;;;;4.34;76.02;102446.16;10339910;28;19925;-60
2023/03/27 19:52:36;;;;;;;;;;;;;;;4.06;76.39;102452.31;10340237;28;19968;-60
2023/03/27 19:57:38;;;;;;;;;;;;;;;3.84;78.21;102448.09;10341159;28;19926;-60
2023/03/27 20:02:42;;;;;;;;;;;;;;;3.65;77.70;102447.28;10339496;28;19929;-60
2023/03/27 20:07:44;;;;;;;;;;;;;;;3.76;77.76;102455.88;10339265;28;19976;-60
2023/03/27 20:12:47;;;;;;;;;;;;;;;3.89;77.76;102454.13;10337508;28;20381;-60
2023/03/27 20:17:49;;;;;;;;;;;;;;;3.75;77.22;102450.69;10326510;28;19930;-60
2023/03/27 20:22:55;;;;;;;;;;;;;;;4.06;76.56;102454.91;10298488;28;19926;-60
2023/03/27 20:27:59;;;;;;;;;;;;;;;4.03;76.24;102454.06;10304100;28;20262;-60
2023/03/27 20:33:02;;;;;;;;;;;;;;;3.90;77.81;102458.41;10337724;28;20262;-60
2023/03/27 20:38:04;;;;;;;;;;;;;;;3.41;77.79;102451.59;10336659;28;19926;-60
2023/03/27 20:43:06;;;;;;;;;;;;;;;3.67;77.86;102458.50;10337929;28;19980;-61
2023/03/27 20:48:13;;;;;;;;;;;;;;;3.52;79.02;102473.19;10339033;28;19957;-60
2023/03/27 20:53:17;;;;;;;;;;;;;;;3.50;78.68;102474.91;10336972;28;19929;-60
2023/03/27 20:58:19;;;;;;;;;;;;;;;3.46;78.56;102475.78;10336402;28;20336;-60
2023/03/27 21:03:21;;;;;;;;;;;;;;;3.14;77.89;102487.00;10302623;28;20404;-60
2023/03/27 21:08:24;;;;;;;;;;;;;;;3.30;79.16;102477.50;10306910;28;19980;-60
2023/03/27 21:13:27;;;;;;;;;;;;;;;3.24;79.03;102471.47;10344652;28;19933;-60
2023/03/27 21:18:29;;;;;;;;;;;;;;;3.14;78.66;102480.94;10293776;28;19926;-60
2023/03/27 21:23:31;;;;;;;;;;;;;;;3.41;77.75;102480.09;10296210;28;19926;-60
2023/03/27 21:28:33;;;;;;;;;;;;;;;3.50;77.95;102485.28;10295209;28;20293;-60
2023/03/27 21:33:36;;;;;;;;;;;;;;;3.08;79.73;102492.19;10335144;28;19960;-60
2023/03/27 21:38:38;;;;;;;;;;;;;;;3.02;81.13;102492.16;10335792;28;19933;-60
2023/03/27 21:43:40;;;;;;;;;;;;;;;2.90;81.67;102499.91;10320312;28;19926;-60
2023/03/27 21:48:47;;;;;;;;;;;;;;;2.98;82.09;102504.22;10335470;28;19926;-60
2023/03/27 21:53:49;;;;;;;;;;;;;;;2.81;82.23;102503.34;10319450;28;19933;-60
2023/03/27 21:58:51;;;;;;;;;;;;;;;2.80;82.80;102506.78;10335227;28;19925;-60
2023/03/27 22:03:58;;;;;;;;;;;;;;;2.79;83.02;102499.88;10335504;28;20288;-60
2023/03/27 22:09:00;;;;;;;;;;;;;;;2.75;83.97;102506.75;10334636;28;19926;-60
2023/03/27 22:14:02;;;;;;;;;;;;;;;2.48;85.59;102509.28;10308363;28;19972;-60
2023/03/27 22:19:05;;;;;;;;;;;;;;;2.26;86.78;102505.75;10294175;28;19930;-60
2023/03/27 22:24:08;;;;;;;;;;;;;;;2.60;87.77;102512.75;10322323;28;19929;-60
2023/03/27 22:29:10;;;;;;;;;;;;;;;2.14;89.48;102520.31;10333977;28;20361;-60
2023/03/27 22:34:12;;;;;;;;;;;;;;;2.31;90.40;102532.47;10304857;28;19981;-60
2023/03/27 22:39:14;;;;;;;;;;;;;;;2.29;92.54;102540.22;10302852;28;19926;-60
2023/03/27 22:44:17;;;;;;;;;;;;;;;1.82;94.17;102541.66;10339184;28;20484;-60
2023/03/27 22:49:19;;;;;;;;;;;;;;;1.76;95.50;102545.91;10342293;28;19929;-60
2023/03/27 22:54:22;;;;;;;;;;;;;;;2.05;96.88;102548.69;10330685;28;20266;-60
2023/03/27 22:59:24;;;;;;;;;;;;;;;2.18;96.54;102542.72;10313017;28;19926;-60
2023/03/27 23:04:29;;;;;;;;;;;;;;;2.04;96.98;102541.81;10341770;28;19930;-60
2023/03/27 23:09:31;;;;;;;;;;;;;;;2.09;96.03;102544.41;10339751;28;19996;-60
2023/03/27 23:14:33;;;;;;;;;;;;;;;2.39;95.73;102551.47;10341200;28;19930;-59
2023/03/27 23:19:35;;;;;;;;;;;;;;;2.25;95.77;102555.69;10304841;28;20104;-60
2023/03/27 23:24:37;;;;;;;;;;;;;;;2.16;95.25;102561.69;10340999;28;19926;-59
2023/03/27 23:29:40;;;;;;;;;;;;;;;2.00;96.97;102560.69;10377516;22;19971;-64
2023/03/27 23:34:42;;;;;;;;;;;;;;;2.45;96.46;102567.00;10419558;28;19929;-64
2023/03/27 23:39:44;;;;;;;;;;;;;;;1.94;95.60;102564.13;10421957;28;19929;-64
2023/03/27 23:44:47;;;;;;;;;;;;;;;2.22;96.33;102567.75;10421763;28;19956;-64
2023/03/27 23:49:49;;;;;;;;;;;;;;;2.03;96.79;102561.63;10421010;28;19925;-64
2023/03/27 23:54:51;;;;;;;;;;;;;;;1.80;98.49;102565.72;10420351;28;19929;-64
2023/03/27 23:59:53;;;;;;;;;;;;;;;2.15;98.22;102558.25;10421172;28;19925;-64
